Time;durP1;ratioP1;P1;durP2;ratioP2;P2;SDS_P1;SDS_P2;PMS_P1;PMS_P2;Temp;Humidity;BMP_temperature;BMP_pressure;BME280_temperature;BME280_humidity;BME280_pressure;Samples;Min_cycle;Max_cycle;Signal;HPM_P1;HPM_P2
2023/03/23 00:02:35;;;;;;;3.83;3.17;;;19.50;53.60;;;;;;5032631;28;20200;-68
2023/03/23 00:05:03;;;;;;;4.65;3.47;;;19.50;53.60;;;;;;5016290;28;20208;-68
2023/03/23 00:07:29;;;;;;;3.60;3.30;;;19.50;53.60;;;;;;5029935;28;20216;-68
2023/03/23 00:09:56;;;;;;;3.75;2.95;;;19.50;53.60;;;;;;5025517;28;20218;-68
2023/03/23 00:12:33;;;;;;;3.90;3.50;;;19.50;53.60;;;;;;5007262;28;20190;-69
2023/03/23 00:15:05;;;;;;;4.85;3.30;;;19.50;54.20;;;;;;5023288;28;20298;-68
2023/03/23 00:17:32;;;;;;;3.42;3.13;;;19.50;53.60;;;;;;5031183;28;20217;-68
2023/03/23 00:20:00;;;;;;;4.57;3.25;;;19.50;53.60;;;;;;5005721;28;20188;-68
2023/03/23 00:22:28;;;;;;;3.17;2.88;;;19.50;53.60;;;;;;5007860;28;20183;-68
2023/03/23 00:24:54;;;;;;;3.50;3.20;;;19.50;53.60;;;;;;5031080;28;20256;-68
2023/03/23 00:27:21;;;;;;;3.40;3.10;;;19.50;53.60;;;;;;5006760;28;20199;-68
2023/03/23 00:29:53;;;;;;;3.97;3.55;;;19.50;53.60;;;;;;5029077;28;20181;-69
2023/03/23 00:32:28;;;;;;;3.70;3.33;;;19.50;53.60;;;;;;5015137;28;20198;-68
2023/03/23 00:35:00;;;;;;;4.43;3.47;;;19.50;53.60;;;;;;5031079;28;20597;-68
2023/03/23 00:37:27;;;;;;;3.95;3.55;;;19.50;53.60;;;;;;5014654;28;20275;-69
2023/03/23 00:39:56;;;;;;;4.05;3.03;;;19.50;53.60;;;;;;5014471;28;20186;-68
2023/03/23 00:42:23;;;;;;;4.22;3.70;;;19.50;53.60;;;;;;5030188;28;20270;-68
2023/03/23 00:44:49;;;;;;;4.40;3.60;;;19.50;53.60;;;;;;5020042;28;20220;-68
2023/03/23 00:47:17;;;;;;;3.80;3.40;;;19.50;53.60;;;;;;5030852;28;20198;-69
2023/03/23 00:49:43;;;;;;;4.10;3.50;;;19.50;53.60;;;;;;5030647;28;20282;-68
2023/03/23 00:52:10;;;;;;;4.35;3.25;;;19.40;53.60;;;;;;5014521;28;20278;-69
2023/03/23 00:54:37;;;;;;;3.42;3.13;;;19.50;53.60;;;;;;5014226;28;20191;-68
2023/03/23 00:57:04;;;;;;;3.15;2.85;;;19.50;53.60;;;;;;5030776;28;20191;-69
2023/03/23 00:59:30;;;;;;;4.53;3.20;;;19.40;54.10;;;;;;5025839;28;20188;-68
2023/03/23 01:01:56;;;;;;;4.38;3.38;;;19.50;53.60;;;;;;5019063;28;20198;-68
2023/03/23 01:04:22;;;;;;;4.30;3.42;;;19.50;53.60;;;;;;5010960;28;20192;-68
2023/03/23 01:06:51;;;;;;;3.88;3.33;;;19.40;53.60;;;;;;5009933;28;20187;-68
2023/03/23 01:09:20;;;;;;;3.28;2.80;;;19.50;53.70;;;;;;5005795;28;20699;-68
2023/03/23 01:11:51;;;;;;;3.80;3.40;;;19.40;53.60;;;;;;5024116;28;20188;-69
2023/03/23 01:14:19;;;;;;;3.10;2.85;;;19.50;53.70;;;;;;5012621;28;20191;-69
2023/03/23 01:16:45;;;;;;;3.40;3.10;;;19.50;53.60;;;;;;5030695;28;20211;-69
2023/03/23 01:19:11;;;;;;;3.30;2.90;;;19.40;53.60;;;;;;5030448;28;20201;-68
2023/03/23 01:21:38;;;;;;;3.38;3.08;;;19.40;53.60;;;;;;5030537;28;20262;-69
2023/03/23 01:24:04;;;;;;;3.38;3.05;;;19.40;53.60;;;;;;5031623;28;20198;-69
2023/03/23 01:26:30;;;;;;;3.35;3.05;;;19.40;53.60;;;;;;5030987;28;20229;-68
2023/03/23 01:28:57;;;;;;;3.85;3.40;;;19.50;53.70;;;;;;5029986;28;20237;-68
2023/03/23 01:31:26;;;;;;;3.50;2.90;;;19.50;53.70;;;;;;5022072;28;20218;-68
2023/03/23 01:33:52;;;;;;;4.28;3.40;;;19.50;53.70;;;;;;5027846;28;20260;-68
2023/03/23 01:36:26;;;;;;;5.07;3.47;;;19.40;53.60;;;;;;5026500;28;20200;-68
2023/03/23 01:38:53;;;;;;;3.80;3.40;;;19.50;53.70;;;;;;5034368;28;20187;-68
2023/03/23 01:41:20;;;;;;;3.88;3.50;;;19.40;53.60;;;;;;5029018;28;20186;-68
2023/03/23 01:44:03;;;;;;;3.25;2.65;;;19.40;53.60;;;;;;5017895;28;20224;-68
2023/03/23 01:46:36;;;;;;;3.10;2.85;;;19.40;53.60;;;;;;5001467;28;20211;-68
2023/03/23 01:49:10;;;;;;;3.40;3.10;;;19.40;53.70;;;;;;5031228;28;20229;-68
2023/03/23 01:51:45;;;;;;;2.97;2.70;;;19.40;53.60;;;;;;5030181;28;20195;-68
2023/03/23 01:54:19;;;;;;;3.17;2.78;;;19.50;53.80;;;;;;5046254;28;20236;-68
2023/03/23 01:56:54;;;;;;;3.30;3.00;;;19.40;53.60;;;;;;5027421;28;20575;-68
2023/03/23 01:59:23;;;;;;;2.90;2.58;;;19.50;53.80;;;;;;5050389;28;20214;-68
2023/03/23 02:02:00;;;;;;;2.60;2.40;;;19.40;53.70;;;;;;5029001;28;20205;-68
2023/03/23 02:04:29;;;;;;;2.85;2.58;;;19.40;53.60;;;;;;5017252;28;20686;-68
2023/03/23 02:06:57;;;;;;;3.35;2.90;;;19.40;53.60;;;;;;5017311;28;20183;-68
2023/03/23 02:09:26;;;;;;;3.45;2.88;;;19.40;53.60;;;;;;5013643;28;20211;-68
2023/03/23 02:11:54;;;;;;;2.80;2.47;;;19.40;53.60;;;;;;5026662;28;20274;-68
2023/03/23 02:14:24;;;;;;;3.03;2.83;;;19.40;53.60;;;;;;5022061;28;20250;-67
2023/03/23 02:17:38;;;;;;;3.10;2.80;;;19.40;53.60;;;;;;5005925;28;20180;-68
2023/03/23 02:20:18;;;;;;;2.67;2.45;;;19.40;53.60;;;;;;5028034;28;20191;-68
2023/03/23 02:23:35;;;;;;;2.75;2.45;;;19.50;53.70;;;;;;5002951;28;20187;-69
2023/03/23 02:26:32;;;;;;;3.03;2.50;;;19.50;53.70;;;;;;5013939;28;20672;-68
2023/03/23 02:29:43;;;;;;;2.50;2.30;;;19.40;53.60;;;;;;5033798;28;20211;-68
2023/03/23 02:32:42;;;;;;;2.35;2.15;;;19.40;53.60;;;;;;5031297;28;20179;-68
2023/03/23 02:35:23;;;;;;;3.22;2.30;;;19.40;54.00;;;;;;5008599;28;20208;-68
2023/03/23 02:38:00;;;;;;;2.78;2.30;;;19.40;53.60;;;;;;5016595;28;20191;-69
2023/03/23 02:40:40;;;;;;;3.47;2.38;;;19.40;53.60;;;;;;5015891;28;20247;-68
2023/03/23 02:43:13;;;;;;;2.35;2.15;;;19.40;53.60;;;;;;5016512;28;20199;-68
2023/03/23 02:45:42;;;;;;;2.40;2.20;;;19.40;53.60;;;;;;5016111;28;20702;-68
2023/03/23 02:48:12;;;;;;;2.40;2.20;;;19.40;53.60;;;;;;5016369;28;20211;-68
2023/03/23 02:50:43;;;;;;;2.20;2.00;;;19.40;53.60;;;;;;5019996;28;20187;-68
2023/03/23 02:53:15;;;;;;;2.33;2.10;;;19.50;53.70;;;;;;5014240;28;20186;-68
2023/03/23 02:55:44;;;;;;;3.03;2.20;;;19.40;53.60;;;;;;5032338;28;20217;-68
2023/03/23 02:58:15;;;;;;;2.03;1.88;;;19.50;53.60;;;;;;5049253;28;20191;-68
2023/03/23 03:00:44;;;;;;;2.30;2.10;;;19.40;53.60;;;;;;5049458;28;20611;-68
2023/03/23 03:03:16;;;;;;;2.88;2.25;;;19.40;53.50;;;;;;5023702;28;20195;-68
2023/03/23 03:05:59;;;;;;;2.05;1.85;;;19.40;53.50;;;;;;5012299;28;20293;-68
2023/03/23 03:08:27;;;;;;;2.75;2.30;;;19.40;53.50;;;;;;5015375;28;20242;-68
2023/03/23 03:11:09;;;;;;;2.45;2.25;;;19.40;53.60;;;;;;4999315;28;20194;-68
2023/03/23 03:14:02;;;;;;;2.78;2.47;;;19.40;53.60;;;;;;5015778;28;20241;-69
2023/03/23 03:16:38;;;;;;;2.22;2.03;;;19.40;53.50;;;;;;5032481;28;20207;-68
2023/03/23 03:19:07;;;;;;;2.22;2.00;;;19.50;53.70;;;;;;5018462;28;20197;-68
2023/03/23 03:21:41;;;;;;;1.90;1.80;;;19.40;53.50;;;;;;5024156;28;20209;-68
2023/03/23 03:24:11;;;;;;;2.03;1.88;;;19.40;53.50;;;;;;5037439;28;20187;-69
2023/03/23 03:26:47;;;;;;;1.92;1.83;;;19.40;53.50;;;;;;4996125;28;20594;-68
2023/03/23 03:29:35;;;;;;;2.20;2.00;;;19.40;53.50;;;;;;5023873;28;20222;-68
2023/03/23 03:32:06;;;;;;;1.80;1.70;;;19.40;53.50;;;;;;5048929;28;20229;-68
2023/03/23 03:34:34;;;;;;;2.08;1.88;;;19.40;53.50;;;;;;5025035;28;20187;-68
2023/03/23 03:37:04;;;;;;;1.98;1.88;;;19.40;53.50;;;;;;5012955;28;20565;-68
2023/03/23 03:39:30;;;;;;;2.00;1.90;;;19.40;53.50;;;;;;5006689;28;20180;-69
2023/03/23 03:41:56;;;;;;;2.67;2.08;;;19.40;53.50;;;;;;5019703;28;20190;-69
2023/03/23 03:44:22;;;;;;;1.70;1.60;;;19.40;53.60;;;;;;5031847;28;20199;-68
2023/03/23 03:46:47;;;;;;;1.85;1.70;;;19.40;53.60;;;;;;5023599;28;20194;-69
2023/03/23 03:49:13;;;;;;;2.72;1.85;;;19.40;53.50;;;;;;5022169;28;20255;-68
2023/03/23 03:51:41;;;;;;;1.70;1.60;;;19.40;53.50;;;;;;5016960;28;20237;-68
2023/03/23 03:54:12;;;;;;;2.38;1.83;;;19.40;53.50;;;;;;5030664;28;20189;-68
2023/03/23 03:56:40;;;;;;;2.10;1.90;;;19.40;53.50;;;;;;5011537;28;20203;-69
2023/03/23 03:59:32;;;;;;;2.13;1.77;;;19.40;53.50;;;;;;5011611;28;20253;-68
2023/03/23 04:02:24;;;;;;;1.88;1.70;;;19.40;53.50;;;;;;5005964;28;20245;-68
2023/03/23 04:04:52;;;;;;;1.85;1.75;;;19.40;53.50;;;;;;5010187;28;20199;-68
2023/03/23 04:07:18;;;;;;;1.95;1.75;;;19.40;53.50;;;;;;5028526;28;20272;-68
2023/03/23 04:09:47;;;;;;;1.73;1.63;;;19.40;53.50;;;;;;5011833;28;20184;-68
2023/03/23 04:12:15;;;;;;;1.70;1.60;;;19.40;53.50;;;;;;5001352;28;20596;-68
2023/03/23 04:14:57;;;;;;;1.88;1.77;;;19.40;53.50;;;;;;5012793;28;20219;-68
2023/03/23 04:17:29;;;;;;;1.67;1.58;;;19.40;53.50;;;;;;4999120;28;20186;-70
2023/03/23 04:19:59;;;;;;;2.03;1.30;;;19.40;53.50;;;;;;5001413;28;20607;-68
2023/03/23 04:22:30;;;;;;;1.70;1.55;;;19.40;53.50;;;;;;5038948;28;20276;-68
2023/03/23 04:25:02;;;;;;;1.50;1.40;;;19.40;53.50;;;;;;5012684;28;20914;-68
2023/03/23 04:27:28;;;;;;;1.70;1.60;;;19.40;53.50;;;;;;5002797;28;20287;-68
2023/03/23 04:29:58;;;;;;;1.73;1.60;;;19.40;53.50;;;;;;5026355;28;20184;-68
2023/03/23 04:32:42;;;;;;;1.90;1.70;;;19.40;53.50;;;;;;5028301;28;20198;-68
2023/03/23 04:35:13;;;;;;;1.70;1.60;;;19.40;53.50;;;;;;4995467;28;20203;-68
2023/03/23 04:37:46;;;;;;;1.50;1.40;;;19.40;53.50;;;;;;5015219;28;20189;-68
2023/03/23 04:40:16;;;;;;;1.73;1.50;;;19.40;53.50;;;;;;5019953;28;20351;-68
2023/03/23 04:42:51;;;;;;;1.63;1.52;;;19.40;53.50;;;;;;5038853;28;20188;-68
2023/03/23 04:45:45;;;;;;;1.67;1.48;;;19.30;53.50;;;;;;5027610;22;20230;-70
2023/03/23 04:48:11;;;;;;;1.55;1.45;;;19.40;53.60;;;;;;5031047;28;20362;-71
2023/03/23 04:50:48;;;;;;;1.45;1.35;;;19.40;53.50;;;;;;5011594;28;20180;-72
2023/03/23 04:53:21;;;;;;;1.42;1.33;;;19.30;53.40;;;;;;5013061;28;20271;-70
2023/03/23 04:55:48;;;;;;;1.52;1.42;;;19.30;53.50;;;;;;5039258;28;20249;-71
2023/03/23 04:58:16;;;;;;;1.60;1.50;;;19.40;53.60;;;;;;5014706;28;20179;-71
2023/03/23 05:01:01;;;;;;;1.77;1.50;;;19.40;53.60;;;;;;5031256;28;20677;-71
2023/03/23 05:03:28;;;;;;;1.70;1.40;;;19.40;53.50;;;;;;5030265;28;20184;-71
2023/03/23 05:05:55;;;;;;;1.80;1.63;;;19.30;53.40;;;;;;5016354;28;20269;-71
2023/03/23 05:08:24;;;;;;;1.63;1.40;;;19.40;53.60;;;;;;4996315;28;20220;-71
2023/03/23 05:10:57;;;;;;;1.55;1.45;;;19.30;53.50;;;;;;5031085;28;20677;-71
2023/03/23 05:13:27;;;;;;;1.60;1.50;;;19.40;53.60;;;;;;5014742;28;20180;-71
2023/03/23 05:15:55;;;;;;;1.50;1.33;;;19.30;53.50;;;;;;5027735;28;20294;-71
2023/03/23 05:18:21;;;;;;;1.60;1.50;;;19.40;53.60;;;;;;4994718;28;20195;-71
2023/03/23 05:20:48;;;;;;;1.63;1.50;;;19.30;53.50;;;;;;5018625;28;20195;-71
2023/03/23 05:23:20;;;;;;;1.60;1.50;;;19.30;53.50;;;;;;5013943;28;20202;-71
2023/03/23 05:26:00;;;;;;;1.70;1.50;;;19.30;53.50;;;;;;5024085;28;20211;-71
2023/03/23 05:28:27;;;;;;;1.67;1.58;;;19.40;53.60;;;;;;5016993;28;20260;-71
2023/03/23 05:30:57;;;;;;;1.50;1.40;;;19.30;53.50;;;;;;5019284;28;20542;-71
2023/03/23 05:33:27;;;;;;;1.42;1.33;;;19.30;53.50;;;;;;5018819;28;20569;-71
2023/03/23 05:36:15;;;;;;;1.70;1.60;;;19.40;53.60;;;;;;5035405;28;20226;-70
2023/03/23 05:38:59;;;;;;;1.60;1.50;;;19.30;53.50;;;;;;5022902;28;20187;-70
2023/03/23 05:41:27;;;;;;;1.50;1.40;;;19.30;53.50;;;;;;5024922;28;20195;-71
2023/03/23 05:43:53;;;;;;;1.52;1.40;;;19.30;53.60;;;;;;5031423;28;20241;-71
2023/03/23 05:46:23;;;;;;;1.45;1.33;;;19.30;53.60;;;;;;5022425;28;20220;-71
2023/03/23 05:48:51;;;;;;;1.35;1.15;;;19.30;53.60;;;;;;5028668;28;20212;-71
2023/03/23 05:51:21;;;;;;;1.50;1.40;;;19.30;53.50;;;;;;5014977;28;20225;-71
2023/03/23 05:53:47;;;;;;;1.30;1.20;;;19.30;53.50;;;;;;5027758;28;20694;-71
2023/03/23 05:56:15;;;;;;;1.50;1.40;;;19.30;53.50;;;;;;5033026;28;20199;-71
2023/03/23 05:59:13;;;;;;;1.55;1.40;;;19.40;53.60;;;;;;5011218;28;20682;-71
2023/03/23 06:01:42;;;;;;;1.30;1.20;;;19.40;53.60;;;;;;5002585;28;20191;-71
2023/03/23 06:04:09;;;;;;;1.95;1.10;;;19.40;53.60;;;;;;5034128;28;20198;-71
2023/03/23 06:06:54;;;;;;;1.50;1.40;;;19.40;53.60;;;;;;5025769;28;20203;-70
2023/03/23 06:09:20;;;;;;;1.48;1.38;;;19.30;53.50;;;;;;5016324;28;20207;-71
2023/03/23 06:12:05;;;;;;;1.40;1.30;;;19.30;53.50;;;;;;5014648;28;20188;-71
2023/03/23 06:14:43;;;;;;;1.70;1.60;;;19.30;53.50;;;;;;5011504;28;20175;-72
2023/03/23 06:17:12;;;;;;;1.42;1.33;;;19.30;53.50;;;;;;5018015;28;20651;-71
2023/03/23 06:19:38;;;;;;;1.75;1.65;;;19.40;53.60;;;;;;5022199;28;20192;-71
2023/03/23 06:22:10;;;;;;;1.58;1.40;;;19.30;53.50;;;;;;5014438;28;20194;-71
2023/03/23 06:25:02;;;;;;;1.50;1.40;;;19.40;54.20;;;;;;5001488;28;20192;-71
2023/03/23 06:27:39;;;;;;;1.40;1.30;;;19.40;53.50;;;;;;5010592;28;20274;-73
2023/03/23 06:30:05;;;;;;;1.67;1.58;;;19.40;53.60;;;;;;5010358;28;20326;-71
2023/03/23 06:32:33;;;;;;;1.95;1.77;;;19.30;53.50;;;;;;5008618;28;20191;-71
2023/03/23 06:35:01;;;;;;;1.50;1.40;;;19.40;53.60;;;;;;5017221;28;20235;-71
2023/03/23 06:37:33;;;;;;;1.98;1.77;;;19.30;53.50;;;;;;5030309;28;20183;-72
2023/03/23 06:40:10;;;;;;;1.58;1.30;;;19.30;53.40;;;;;;5003208;28;20270;-72
2023/03/23 06:42:38;;;;;;;1.60;1.50;;;19.40;53.60;;;;;;5033245;28;20183;-71
2023/03/23 06:45:25;;;;;;;1.45;1.35;;;19.30;53.40;;;;;;5025788;28;20226;-71
2023/03/23 06:48:00;;;;;;;1.60;1.50;;;19.40;53.60;;;;;;5021655;28;20612;-71
2023/03/23 06:50:29;;;;;;;1.77;1.67;;;19.30;53.50;;;;;;5013886;28;20195;-71
2023/03/23 06:52:56;;;;;;;1.60;1.50;;;19.30;53.50;;;;;;5027679;28;20185;-71
2023/03/23 06:55:22;;;;;;;1.73;1.52;;;19.30;53.50;;;;;;5016284;28;20234;-70
2023/03/23 06:57:47;;;;;;;1.30;1.20;;;19.40;53.60;;;;;;5022013;28;20184;-70
2023/03/23 07:00:15;;;;;;;1.50;1.40;;;19.40;53.60;;;;;;5005396;28;20191;-70
2023/03/23 07:02:44;;;;;;;1.40;1.30;;;19.30;53.50;;;;;;5025041;28;20282;-70
2023/03/23 07:05:11;;;;;;;1.98;1.60;;;19.30;53.60;;;;;;5017308;28;20270;-70
2023/03/23 07:07:40;;;;;;;1.77;1.55;;;19.40;53.60;;;;;;5033172;28;20195;-70
2023/03/23 07:10:19;;;;;;;2.30;1.40;;;19.30;53.50;;;;;;5017203;28;20199;-71
2023/03/23 07:12:45;;;;;;;2.35;1.40;;;19.40;53.60;;;;;;5029378;28;20183;-71
2023/03/23 07:15:12;;;;;;;1.70;1.40;;;19.40;53.60;;;;;;5022973;28;20200;-71
2023/03/23 07:17:40;;;;;;;1.50;1.40;;;19.30;53.60;;;;;;5014444;28;20646;-71
2023/03/23 07:20:18;;;;;;;2.28;1.50;;;19.30;53.60;;;;;;5009528;28;20190;-70
2023/03/23 07:22:45;;;;;;;1.50;1.40;;;19.40;53.60;;;;;;5022213;28;20658;-71
2023/03/23 07:25:22;;;;;;;1.73;1.63;;;19.30;53.50;;;;;;5007268;28;20199;-71
2023/03/23 07:27:51;;;;;;;1.45;1.30;;;19.40;53.60;;;;;;5023841;28;20237;-71
2023/03/23 07:30:17;;;;;;;1.45;1.35;;;19.40;53.60;;;;;;5007177;28;20356;-71
2023/03/23 07:32:42;;;;;;;1.50;1.40;;;19.40;53.70;;;;;;5019953;28;20207;-71
2023/03/23 07:35:09;;;;;;;1.80;1.40;;;19.40;53.60;;;;;;5020885;28;20204;-70
2023/03/23 07:37:49;;;;;;;1.48;1.38;;;19.40;53.70;;;;;;5029872;28;20184;-70
2023/03/23 07:40:16;;;;;;;1.50;1.40;;;19.40;53.60;;;;;;5009057;28;20187;-70
2023/03/23 07:42:52;;;;;;;1.45;1.35;;;19.40;54.00;;;;;;5030464;28;20245;-70
2023/03/23 07:45:27;;;;;;;1.60;1.50;;;19.40;53.60;;;;;;5027123;28;20218;-70
2023/03/23 07:47:56;;;;;;;2.22;1.40;;;19.40;53.60;;;;;;5022033;28;20219;-70
2023/03/23 07:50:24;;;;;;;1.48;1.25;;;19.40;53.60;;;;;;5021952;28;20227;-71
2023/03/23 07:52:54;;;;;;;1.60;1.20;;;19.40;53.60;;;;;;5007565;28;20183;-70
2023/03/23 07:55:21;;;;;;;3.47;1.45;;;19.40;53.70;;;;;;5023387;28;20207;-70
2023/03/23 07:58:18;;;;;;;1.73;1.50;;;19.40;53.60;;;;;;5012824;28;20206;-70
2023/03/23 08:00:48;;;;;;;2.10;1.63;;;19.40;53.60;;;;;;5017378;28;20188;-70
2023/03/23 08:03:15;;;;;;;1.58;1.48;;;19.40;53.60;;;;;;5021049;28;20652;-70
2023/03/23 08:06:05;;;;;;;1.88;1.40;;;19.40;53.60;;;;;;5020477;28;20215;-70
2023/03/23 08:08:50;;;;;;;2.22;1.40;;;19.40;53.60;;;;;;5022775;28;20225;-71
2023/03/23 08:11:35;;;;;;;1.45;1.35;;;19.40;53.60;;;;;;5025009;28;20257;-70
2023/03/23 08:14:28;;;;;;;1.98;1.40;;;19.40;53.70;;;;;;5023572;28;20195;-70
2023/03/23 08:17:04;;;;;;;3.05;1.60;;;19.40;53.70;;;;;;5023599;28;20260;-70
2023/03/23 08:20:12;;;;;;;1.50;1.40;;;19.40;53.60;;;;;;5011387;28;20182;-70
2023/03/23 08:23:09;;;;;;;1.80;1.30;;;19.40;53.60;;;;;;5011244;28;20238;-70
2023/03/23 08:25:42;;;;;;;1.40;1.30;;;19.50;53.80;;;;;;5026458;28;20326;-70
2023/03/23 08:28:31;;;;;;;2.08;1.33;;;19.40;53.60;;;;;;5022260;28;20224;-70
2023/03/23 08:31:17;;;;;;;1.65;1.20;;;19.40;53.70;;;;;;5027463;28;20224;-70
2023/03/23 08:34:05;;;;;;;1.30;1.20;;;19.40;53.70;;;;;;5014856;28;20203;-71
2023/03/23 08:36:44;;;;;;;1.63;1.52;;;19.40;53.60;;;;;;5021667;28;20214;-70
2023/03/23 08:39:18;;;;;;;1.88;1.55;;;19.40;53.70;;;;;;5021622;28;20199;-70
2023/03/23 08:42:07;;;;;;;1.40;1.30;;;19.50;53.70;;;;;;5006898;28;20203;-70
2023/03/23 08:44:52;;;;;;;2.50;1.30;;;19.40;53.60;;;;;;5019340;28;20187;-71
2023/03/23 08:47:37;;;;;;;1.70;1.60;;;19.50;53.70;;;;;;5007675;28;20184;-70
2023/03/23 08:50:28;;;;;;;2.17;1.65;;;19.50;53.70;;;;;;5010442;28;20212;-70
2023/03/23 08:53:20;;;;;;;1.38;1.27;;;19.50;53.70;;;;;;5021715;28;20715;-69
2023/03/23 08:55:48;;;;;;;1.48;1.20;;;19.50;53.70;;;;;;5024199;28;20231;-70
2023/03/23 08:58:38;;;;;;;2.85;1.48;;;19.50;53.70;;;;;;5010375;28;20224;-70
2023/03/23 09:01:07;;;;;;;1.98;1.33;;;19.50;53.70;;;;;;5021769;28;20202;-70
2023/03/23 09:03:52;;;;;;;1.55;1.45;;;19.50;53.60;;;;;;5025476;28;20183;-71
2023/03/23 09:06:33;;;;;;;2.17;1.42;;;19.50;53.80;;;;;;5022621;28;20205;-70
2023/03/23 09:09:00;;;;;;;1.70;1.25;;;19.50;53.70;;;;;;5005252;28;20289;-71
2023/03/23 09:11:27;;;;;;;1.45;1.30;;;19.50;54.30;;;;;;5025321;28;20180;-71
2023/03/23 09:13:53;;;;;;;1.45;1.35;;;19.50;53.80;;;;;;5013736;28;20206;-71
2023/03/23 09:16:23;;;;;;;2.17;1.40;;;19.50;53.70;;;;;;5005882;28;20208;-70
2023/03/23 09:18:51;;;;;;;1.90;1.38;;;19.50;53.70;;;;;;5024090;28;20273;-70
2023/03/23 09:21:17;;;;;;;1.40;1.30;;;19.50;53.70;;;;;;5023984;28;20204;-70
2023/03/23 09:23:44;;;;;;;1.27;1.17;;;19.50;53.70;;;;;;5005583;28;20214;-70
2023/03/23 09:26:13;;;;;;;1.50;1.40;;;19.50;53.70;;;;;;5007760;28;20591;-70
2023/03/23 09:28:40;;;;;;;1.48;1.30;;;19.50;53.80;;;;;;5019873;28;20211;-71
2023/03/23 09:31:06;;;;;;;2.35;1.45;;;19.50;53.80;;;;;;5003022;28;20185;-70
2023/03/23 09:33:35;;;;;;;2.83;1.60;;;19.50;53.80;;;;;;5019813;28;20191;-70
2023/03/23 09:36:02;;;;;;;2.40;1.40;;;19.50;53.80;;;;;;5016099;28;20302;-70
2023/03/23 09:38:31;;;;;;;2.60;1.48;;;19.50;53.80;;;;;;5028580;28;20215;-71
2023/03/23 09:41:25;;;;;;;1.35;1.25;;;19.50;53.80;;;;;;5019805;28;20191;-72
2023/03/23 09:43:57;;;;;;;1.35;1.25;;;19.50;53.80;;;;;;5020557;28;20199;-71
2023/03/23 09:46:44;;;;;;;1.70;1.40;;;19.50;53.80;;;;;;5012682;28;20219;-71
2023/03/23 09:49:14;;;;;;;1.40;1.30;;;19.50;53.80;;;;;;5019705;28;20212;-71
2023/03/23 09:52:05;;;;;;;2.03;1.15;;;19.50;53.80;;;;;;5031988;28;20203;-70
2023/03/23 09:54:39;;;;;;;2.50;1.35;;;19.50;53.80;;;;;;5034225;28;20583;-71
2023/03/23 09:57:27;;;;;;;1.48;1.30;;;19.50;53.70;;;;;;5022843;28;20222;-71
2023/03/23 10:00:04;;;;;;;1.50;1.40;;;19.60;53.90;;;;;;5024557;28;20220;-70
2023/03/23 10:03:06;;;;;;;2.05;1.50;;;19.60;53.90;;;;;;5038318;28;20199;-71
2023/03/23 10:05:45;;;;;;;1.90;1.33;;;19.50;53.80;;;;;;5022499;28;20235;-71
2023/03/23 10:08:27;;;;;;;1.65;1.30;;;19.50;53.80;;;;;;5024563;28;20299;-71
2023/03/23 10:11:17;;;;;;;2.67;1.17;;;19.50;53.80;;;;;;5023299;28;20242;-72
2023/03/23 10:14:13;;;;;;;1.40;1.00;;;19.60;53.90;;;;;;5013946;28;20214;-70
2023/03/23 10:17:13;;;;;;;1.40;1.17;;;19.60;53.90;;;;;;5029641;28;20289;-71
2023/03/23 10:20:14;;;;;;;2.55;1.45;;;19.60;53.90;;;;;;5009868;28;20180;-71
2023/03/23 10:23:18;;;;;;;1.63;1.40;;;19.60;53.90;;;;;;5024875;28;20194;-72
2023/03/23 10:26:04;;;;;;;1.40;1.30;;;19.60;53.90;;;;;;4998757;28;20215;-71
2023/03/23 10:28:44;;;;;;;1.35;1.25;;;19.60;53.90;;;;;;5024485;28;20683;-72
2023/03/23 10:31:22;;;;;;;1.92;1.23;;;19.60;53.90;;;;;;5006092;28;20269;-72
2023/03/23 10:33:52;;;;;;;1.30;1.20;;;19.60;54.00;;;;;;5022382;28;20187;-73
2023/03/23 10:36:29;;;;;;;2.05;1.50;;;19.60;53.90;;;;;;5023619;28;20207;-72
2023/03/23 10:39:17;;;;;;;1.30;1.20;;;19.60;54.00;;;;;;5031804;28;20194;-71
2023/03/23 10:41:43;;;;;;;2.08;1.30;;;19.60;54.00;;;;;;5023154;28;20191;-71
2023/03/23 10:44:25;;;;;;;6.05;1.67;;;19.60;54.00;;;;;;5005687;28;20184;-72
2023/03/23 10:47:02;;;;;;;2.88;2.55;;;19.60;54.00;;;;;;5038072;28;20222;-72
2023/03/23 10:49:42;;;;;;;5.55;4.30;;;19.60;54.00;;;;;;5043741;22;20609;-68
2023/03/23 10:52:34;;;;;;;8.73;6.40;;;19.60;54.70;;;;;;5028480;28;20192;-68
2023/03/23 10:55:22;;;;;;;14.00;10.10;;;19.60;54.10;;;;;;5017835;28;20210;-68
2023/03/23 10:58:11;;;;;;;17.85;13.38;;;19.60;54.20;;;;;;5022476;28;20737;-69
2023/03/23 11:00:47;;;;;;;117.78;87.28;;;19.60;54.00;;;;;;5022674;28;20212;-68
2023/03/23 11:03:17;;;;;;;192.20;139.15;;;19.70;54.60;;;;;;5030249;28;20213;-68
2023/03/23 11:05:47;;;;;;;189.80;133.07;;;19.70;54.70;;;;;;5018360;28;20191;-67
2023/03/23 11:08:21;;;;;;;181.10;130.80;;;19.70;54.70;;;;;;5027352;28;20234;-68
2023/03/23 11:10:54;;;;;;;167.40;118.70;;;19.60;54.90;;;;;;5009553;28;20188;-68
2023/03/23 11:13:27;;;;;;;153.90;112.78;;;19.60;55.50;;;;;;5027347;28;20194;-68
2023/03/23 11:15:52;;;;;;;154.70;112.43;;;19.60;54.70;;;;;;5016172;28;20246;-68
2023/03/23 11:18:35;;;;;;;224.45;165.40;;;19.60;55.00;;;;;;5026461;28;20412;-68
2023/03/23 11:21:04;;;;;;;213.90;153.32;;;19.70;54.90;;;;;;5025742;28;20198;-68
2023/03/23 11:23:37;;;;;;;183.52;135.38;;;19.60;54.80;;;;;;5032720;28;20187;-68
2023/03/23 11:26:20;;;;;;;190.32;138.27;;;19.60;54.80;;;;;;5025043;28;20230;-68
2023/03/23 11:29:13;;;;;;;190.77;140.63;;;19.60;54.70;;;;;;5049279;28;20211;-67
2023/03/23 11:31:48;;;;;;;195.05;141.95;;;19.60;54.80;;;;;;5005230;28;20649;-68
2023/03/23 11:34:35;;;;;;;192.40;142.55;;;19.70;54.80;;;;;;5021398;28;20188;-67
2023/03/23 11:37:07;;;;;;;166.07;127.53;;;19.60;54.60;;;;;;5022471;28;20172;-68
2023/03/23 11:39:56;;;;;;;177.18;134.55;;;19.70;54.60;;;;;;5009950;28;20225;-69
2023/03/23 11:42:42;;;;;;;183.75;132.25;;;19.60;54.60;;;;;;5022930;28;20225;-67
2023/03/23 11:45:35;;;;;;;186.43;139.35;;;19.70;54.60;;;;;;5009984;28;20194;-68
2023/03/23 11:48:37;;;;;;;198.13;141.52;;;19.60;54.50;;;;;;5020730;28;20212;-68
2023/03/23 11:51:34;;;;;;;189.07;140.60;;;19.70;54.60;;;;;;5017407;28;20183;-68
2023/03/23 11:54:26;;;;;;;189.63;138.82;;;19.70;54.50;;;;;;5031038;28;20199;-68
2023/03/23 11:56:54;;;;;;;196.25;146.40;;;19.70;54.50;;;;;;5023543;28;20192;-68
2023/03/23 11:59:29;;;;;;;204.90;154.88;;;19.70;54.50;;;;;;5021601;28;20203;-68
2023/03/23 12:02:32;;;;;;;205.40;151.00;;;19.70;54.60;;;;;;5023050;28;20199;-68
2023/03/23 12:05:32;;;;;;;196.90;148.00;;;19.70;54.50;;;;;;5001949;28;20214;-68
2023/03/23 12:08:53;;;;;;;207.52;154.75;;;19.70;54.50;;;;;;5000926;28;20239;-68
2023/03/23 12:11:23;;;;;;;204.75;157.05;;;19.70;54.50;;;;;;5023374;28;20195;-68
2023/03/23 12:14:16;;;;;;;207.05;155.02;;;19.70;54.50;;;;;;5001583;28;20720;-67
2023/03/23 12:17:30;;;;;;;214.18;159.32;;;19.70;54.50;;;;;;5020029;28;20219;-68
2023/03/23 12:20:10;;;;;;;217.50;164.93;;;19.70;54.50;;;;;;5027195;28;20337;-70
2023/03/23 12:22:44;;;;;;;218.30;163.63;;;19.70;54.50;;;;;;5027395;28;20720;-68
2023/03/23 12:25:28;;;;;;;211.85;157.63;;;19.70;54.50;;;;;;5020732;28;20207;-69
2023/03/23 12:28:01;;;;;;;215.95;164.98;;;19.70;54.50;;;;;;5005038;28;20280;-69
2023/03/23 12:30:42;;;;;;;215.57;162.20;;;19.70;54.60;;;;;;5022225;28;20637;-69
2023/03/23 12:33:34;;;;;;;218.77;172.05;;;19.70;54.60;;;;;;5019482;28;20191;-69
2023/03/23 12:36:12;;;;;;;221.95;169.55;;;19.70;54.60;;;;;;5027492;28;20188;-69
2023/03/23 12:39:05;;;;;;;214.48;163.70;;;19.70;54.50;;;;;;5017839;28;20207;-69
2023/03/23 12:41:52;;;;;;;221.25;167.65;;;19.70;54.50;;;;;;5022963;28;20195;-69
2023/03/23 12:44:31;;;;;;;225.00;170.55;;;19.70;54.50;;;;;;5020720;28;20196;-69
2023/03/23 12:47:29;;;;;;;228.05;172.60;;;19.70;54.50;;;;;;5020058;28;20269;-69
2023/03/23 12:50:05;;;;;;;223.43;170.90;;;19.70;54.60;;;;;;5032302;28;20257;-69
2023/03/23 12:52:51;;;;;;;216.35;162.65;;;19.70;54.50;;;;;;5021489;28;20188;-69
2023/03/23 12:55:34;;;;;;;221.45;167.30;;;19.70;54.50;;;;;;5007382;28;20189;-67
2023/03/23 12:58:11;;;;;;;214.43;165.23;;;19.70;54.50;;;;;;5017727;28;20241;-69
2023/03/23 13:01:38;;;;;;;212.00;157.82;;;19.70;54.50;;;;;;5001210;28;20213;-69
2023/03/23 13:04:21;;;;;;;209.68;159.20;;;19.70;54.60;;;;;;5008386;28;20196;-70
2023/03/23 13:06:48;;;;;;;202.63;156.57;;;19.70;54.60;;;;;;5002092;28;20195;-69
2023/03/23 13:09:44;;;;;;;205.43;156.05;;;19.70;54.50;;;;;;5019738;28;20622;-69
2023/03/23 13:12:11;;;;;;;206.23;159.50;;;19.70;54.60;;;;;;5017577;28;20278;-69
2023/03/23 13:15:05;;;;;;;215.38;166.98;;;19.70;54.50;;;;;;5045627;28;20199;-69
2023/03/23 13:17:55;;;;;;;199.82;157.30;;;19.70;54.60;;;;;;5002375;28;20190;-69
2023/03/23 13:20:51;;;;;;;196.63;152.73;;;19.70;54.50;;;;;;5021780;28;20208;-69
2023/03/23 13:23:53;;;;;;;207.10;154.93;;;19.70;54.60;;;;;;5005581;28;20199;-69
2023/03/23 13:26:24;;;;;;;213.70;168.57;;;19.70;54.60;;;;;;5000156;28;20195;-69
2023/03/23 13:28:53;;;;;;;207.73;162.45;;;19.70;54.60;;;;;;5019050;28;20235;-69